Time;durP1;ratioP1;P1;durP2;ratioP2;P2;SDS_P1;SDS_P2;PMS_P1;PMS_P2;Temp;Humidity;BMP_temperature;BMP_pressure;BME280_temperature;BME280_humidity;BME280_pressure;Samples;Min_cycle;Max_cycle;Signal;HPM_P1;HPM_P2
2022/04/25 00:00:17;;;;;;;9.40;4.57;;;;;;;8.34;74.84;100193.00;5015059;28;20045;-82
2022/04/25 00:02:43;;;;;;;6.25;4.38;;;;;;;8.34;75.24;100195.59;5018201;28;20050;-83
2022/04/25 00:05:10;;;;;;;8.48;4.03;;;;;;;8.31;75.17;100193.03;5015049;28;20053;-82
2022/04/25 00:07:37;;;;;;;10.18;5.40;;;;;;;8.26;75.16;100193.03;5015888;28;20061;-83
2022/04/25 00:10:04;;;;;;;9.75;4.72;;;;;;;8.19;75.68;100198.34;4999347;28;20052;-83
2022/04/25 00:12:30;;;;;;;6.50;4.20;;;;;;;8.08;76.21;100198.38;5020595;28;20049;-83
2022/04/25 00:14:57;;;;;;;7.13;3.70;;;;;;;8.05;76.12;100204.47;5012953;28;20049;-83
2022/04/25 00:17:23;;;;;;;7.40;3.85;;;;;;;8.00;75.99;100205.41;5017081;28;20053;-82
2022/04/25 00:19:50;;;;;;;7.22;4.82;;;;;;;7.95;76.60;100202.81;4996596;28;20050;-83
2022/04/25 00:22:16;;;;;;;4.93;3.55;;;;;;;7.94;77.12;100204.56;5017753;28;20605;-82
2022/04/25 00:24:44;;;;;;;9.15;5.45;;;;;;;7.92;77.04;100200.22;5018194;28;20392;-84
2022/04/25 00:27:12;;;;;;;11.30;5.25;;;;;;;7.88;77.46;100206.34;5018324;28;20045;-83
2022/04/25 00:29:39;;;;;;;5.72;3.97;;;;;;;7.86;77.02;100206.34;5035946;28;20371;-81
2022/04/25 00:32:07;;;;;;;9.90;4.57;;;;;;;7.84;77.19;100207.22;5006999;28;20643;-82
2022/04/25 00:34:33;;;;;;;10.60;4.20;;;;;;;7.82;77.51;100209.81;5002966;28;20569;-82
2022/04/25 00:37:00;;;;;;;5.80;3.83;;;;;;;7.73;77.89;100213.34;5017076;28;20045;-82
2022/04/25 00:39:27;;;;;;;6.95;4.30;;;;;;;7.70;78.54;100209.88;5020643;28;20519;-82
2022/04/25 00:41:54;;;;;;;13.15;5.60;;;;;;;7.72;78.22;100211.63;5016978;28;20219;-83
2022/04/25 00:44:20;;;;;;;5.22;4.07;;;;;;;7.71;77.79;100203.81;5018856;28;20045;-82
2022/04/25 00:46:48;;;;;;;6.00;3.72;;;;;;;7.74;77.78;100211.59;5030836;28;20144;-82
2022/04/25 00:49:15;;;;;;;4.68;4.00;;;;;;;7.77;77.88;100209.84;5019008;28;20048;-81
2022/04/25 00:51:42;;;;;;;8.20;4.65;;;;;;;7.81;77.42;100215.03;5001332;28;20048;-82
2022/04/25 00:54:09;;;;;;;7.00;4.43;;;;;;;7.81;77.66;100213.31;5019673;28;20380;-82
2022/04/25 00:56:37;;;;;;;13.65;5.93;;;;;;;7.74;78.28;100207.28;5034349;28;20244;-82
2022/04/25 00:59:06;;;;;;;8.77;4.65;;;;;;;7.71;78.37;100212.47;5031704;28;20064;-82
2022/04/25 01:01:34;;;;;;;9.65;4.32;;;;;;;7.68;78.47;100212.50;5035403;28;20061;-82
2022/04/25 01:04:01;;;;;;;5.50;4.13;;;;;;;7.69;79.10;100206.44;5017838;28;20057;-83
2022/04/25 01:06:28;;;;;;;6.95;4.35;;;;;;;7.68;79.14;100212.50;5002254;28;20187;-82
2022/04/25 01:08:54;;;;;;;9.38;4.75;;;;;;;7.71;79.10;100209.03;5034084;28;20759;-81
2022/04/25 01:11:21;;;;;;;7.28;4.82;;;;;;;7.67;78.99;100208.16;4999248;28;20122;-82
2022/04/25 01:13:48;;;;;;;8.75;4.55;;;;;;;7.65;79.38;100209.88;5019844;28;20056;-82
2022/04/25 01:16:14;;;;;;;7.40;4.03;;;;;;;7.68;79.30;100214.22;5002173;28;20127;-82
2022/04/25 01:18:41;;;;;;;10.05;4.82;;;;;;;7.59;79.76;100223.81;5019207;28;20056;-82
2022/04/25 01:21:11;;;;;;;10.68;4.57;;;;;;;7.52;80.27;100219.50;5015469;28;20048;-82
2022/04/25 01:29:15;;;;;;;10.50;5.05;;;;;;;7.44;80.82;100222.16;4985434;28;20097;-82
2022/04/25 01:31:43;;;;;;;6.80;4.80;;;;;;;7.40;81.31;100219.53;5022714;28;20046;-82
2022/04/25 01:34:09;;;;;;;7.40;4.93;;;;;;;7.44;81.72;100221.25;5036426;28;20391;-82
2022/04/25 01:36:36;;;;;;;7.10;4.60;;;;;;;7.39;82.11;100221.28;5034903;28;20153;-82
2022/04/25 01:39:03;;;;;;;7.65;4.47;;;;;;;7.38;81.93;100218.66;5006568;28;20045;-82
2022/04/25 01:41:30;;;;;;;9.95;5.82;;;;;;;7.44;82.16;100214.34;5027851;28;20054;-82
2022/04/25 01:43:56;;;;;;;6.95;5.93;;;;;;;7.42;82.06;100223.88;5021229;28;20055;-81
2022/04/25 01:46:23;;;;;;;9.52;6.20;;;;;;;7.38;82.47;100226.47;5015833;28;20156;-82
2022/04/25 01:48:49;;;;;;;8.55;5.10;;;;;;;7.35;82.76;100234.31;5020784;28;20061;-83
2022/04/25 01:51:16;;;;;;;9.23;4.88;;;;;;;7.25;83.29;100226.53;4998197;28;20058;-82
2022/04/25 01:53:42;;;;;;;9.32;4.80;;;;;;;7.23;83.58;100230.84;5005454;28;20132;-83
2022/04/25 01:56:10;;;;;;;11.93;6.63;;;;;;;7.22;83.39;100236.94;5018394;28;20064;-83
2022/04/25 01:58:36;;;;;;;7.32;4.40;;;;;;;7.24;83.39;100239.53;5002323;28;20372;-83
2022/04/25 02:01:07;;;;;;;7.28;4.40;;;;;;;7.28;83.87;100229.09;5019479;28;20056;-82
2022/04/25 02:03:35;;;;;;;6.60;5.07;;;;;;;7.33;83.67;100236.91;5021800;28;20720;-82
2022/04/25 02:06:02;;;;;;;7.65;4.78;;;;;;;7.35;83.17;100232.56;5002211;28;20041;-83
2022/04/25 02:08:29;;;;;;;9.00;5.28;;;;;;;7.35;83.02;100235.16;5002499;28;20049;-82
2022/04/25 02:13:39;;;;;;;11.75;5.30;;;;;;;7.37;83.09;100236.03;5032070;28;20060;-81
2022/04/25 02:16:08;;;;;;;8.68;4.90;;;;;;;7.36;82.61;100238.66;5017088;28;20156;-82
2022/04/25 02:18:36;;;;;;;12.82;5.05;;;;;;;7.31;83.08;100235.19;5032744;28;21101;-81
2022/04/25 02:21:02;;;;;;;11.77;5.10;;;;;;;7.28;83.63;100225.66;5028141;28;20037;-81
2022/04/25 02:23:29;;;;;;;8.38;5.80;;;;;;;7.27;84.02;100221.31;5019923;28;20045;-82
2022/04/25 02:25:56;;;;;;;10.82;5.13;;;;;;;7.27;84.26;100218.69;5014234;28;20068;-81
2022/04/25 02:28:22;;;;;;;11.13;5.60;;;;;;;7.26;83.85;100220.44;5003831;28;20128;-82
2022/04/25 02:30:49;;;;;;;7.97;4.95;;;;;;;7.27;83.90;100236.94;5017596;28;20099;-81
2022/04/25 02:33:16;;;;;;;10.75;6.22;;;;;;;7.29;84.29;100230.84;5033324;28;20190;-80
2022/04/25 02:35:42;;;;;;;9.98;6.78;;;;;;;7.24;84.36;100240.41;5030567;28;20297;-81
2022/04/25 02:38:09;;;;;;;8.80;4.97;;;;;;;7.25;84.68;100231.72;5004005;28;20178;-81
2022/04/25 02:40:35;;;;;;;11.63;5.20;;;;;;;7.27;85.09;100231.72;5012910;28;20045;-81
2022/04/25 02:43:02;;;;;;;15.98;7.10;;;;;;;7.22;84.96;100234.34;5001544;28;20438;-81
2022/04/25 02:45:28;;;;;;;11.13;5.57;;;;;;;7.23;84.99;100238.66;5019962;28;20045;-81
2022/04/25 02:47:55;;;;;;;8.40;5.40;;;;;;;7.26;84.56;100245.59;5018108;28;20080;-80
2022/04/25 02:50:22;;;;;;;10.23;5.65;;;;;;;7.29;84.89;100238.66;5013622;28;20033;-81
2022/04/25 02:52:53;;;;;;;9.73;5.20;;;;;;;7.26;85.42;100243.00;5034129;28;20818;-81
2022/04/25 02:55:20;;;;;;;6.55;5.15;;;;;;;7.22;85.31;100239.56;5019024;28;20120;-80
2022/04/25 02:57:47;;;;;;;7.15;5.35;;;;;;;7.21;85.61;100240.41;5004404;28;20432;-81
2022/04/25 03:00:15;;;;;;;6.55;5.32;;;;;;;7.21;85.79;100240.41;5031139;28;20045;-81
2022/04/25 03:02:41;;;;;;;9.32;4.65;;;;;;;7.21;85.57;100234.31;5015688;28;20376;-81
2022/04/25 03:05:08;;;;;;;10.73;5.65;;;;;;;7.20;85.92;100240.44;5014557;28;20060;-82
2022/04/25 03:07:35;;;;;;;12.95;5.72;;;;;;;7.20;86.41;100240.44;5015226;28;20045;-81
2022/04/25 03:10:01;;;;;;;11.07;6.65;;;;;;;7.15;86.33;100242.16;5014707;28;20107;-81
2022/04/25 03:12:29;;;;;;;9.07;4.97;;;;;;;7.11;86.31;100238.69;5015639;28;20046;-84
2022/04/25 03:14:56;;;;;;;7.25;4.63;;;;;;;7.09;86.41;100249.13;5016505;28;20045;-83
2022/04/25 03:17:22;;;;;;;8.73;5.38;;;;;;;7.11;86.65;100241.31;5015258;28;20054;-83
2022/04/25 03:19:49;;;;;;;7.25;4.93;;;;;;;7.14;86.75;100248.25;5015286;28;20050;-81
2022/04/25 03:22:15;;;;;;;6.93;5.40;;;;;;;7.16;86.72;100247.38;5015359;28;20041;-81
2022/04/25 03:24:42;;;;;;;6.10;4.72;;;;;;;7.16;86.84;100247.38;5016244;28;20298;-82
2022/04/25 03:27:08;;;;;;;7.97;5.20;;;;;;;7.16;87.07;100246.47;5007402;28;20056;-81
2022/04/25 03:29:36;;;;;;;8.85;4.47;;;;;;;7.10;87.39;100257.78;5018505;28;20522;-81
2022/04/25 03:32:02;;;;;;;9.38;5.10;;;;;;;7.07;88.33;100260.41;4998812;28;20057;-81
2022/04/25 03:34:30;;;;;;;9.25;5.75;;;;;;;7.03;88.77;100253.47;5004556;28;20341;-80
2022/04/25 03:36:57;;;;;;;9.98;5.10;;;;;;;7.00;89.41;100250.84;5002225;28;20053;-81
2022/04/25 03:39:23;;;;;;;7.85;4.43;;;;;;;6.97;89.29;100254.31;4998359;28;20109;-82
2022/04/25 03:41:50;;;;;;;8.43;5.00;;;;;;;7.10;89.33;100249.97;4996581;28;20056;-81
2022/04/25 03:44:18;;;;;;;8.82;5.32;;;;;;;7.05;89.17;100256.91;5016176;28;20042;-82
2022/04/25 03:46:44;;;;;;;8.10;5.28;;;;;;;7.07;88.65;100261.25;5013955;28;20145;-82
2022/04/25 03:49:11;;;;;;;7.28;4.45;;;;;;;7.10;88.85;100263.88;5016080;28;20120;-82
2022/04/25 03:51:37;;;;;;;7.30;4.70;;;;;;;7.09;88.72;100269.94;5012700;28;20412;-82
2022/04/25 03:54:04;;;;;;;7.40;5.25;;;;;;;7.08;88.84;100268.19;5031173;28;20312;-83
2022/04/25 03:59:14;;;;;;;5.78;4.80;;;;;;;6.97;89.40;100275.13;5022194;28;20041;-81
2022/04/25 04:01:41;;;;;;;6.07;4.78;;;;;;;6.89;89.88;100272.53;5016113;28;20965;-79
2022/04/25 04:04:08;;;;;;;6.07;4.63;;;;;;;6.88;89.57;100273.44;5006719;28;21304;-81
2022/04/25 04:06:37;;;;;;;6.13;5.05;;;;;;;6.89;89.39;100284.69;5019700;28;20049;-81
2022/04/25 04:09:44;;;;;;;8.70;5.28;;;;;;;6.92;89.31;100282.06;5003444;28;20136;-84
2022/04/25 04:11:52;;;;;;;5.95;5.03;;;;;;;6.90;89.56;100283.81;5019760;28;20045;-83
2022/04/25 04:14:19;;;;;;;7.32;4.53;;;;;;;6.88;89.52;100290.75;5004069;28;20136;-83
2022/04/25 04:16:45;;;;;;;7.25;5.13;;;;;;;6.85;89.53;100285.56;5003401;28;20049;-83
2022/04/25 04:19:12;;;;;;;6.78;5.78;;;;;;;6.81;89.68;100289.03;5015010;28;20049;-83
2022/04/25 04:21:38;;;;;;;7.10;4.53;;;;;;;6.80;89.83;100295.94;5006063;28;20058;-83
2022/04/25 04:24:10;;;;;;;6.63;5.05;;;;;;;6.79;90.10;100296.81;5001884;28;20099;-83
2022/04/25 04:26:36;;;;;;;8.55;5.28;;;;;;;6.79;90.19;100289.00;5002961;28;20054;-83
2022/04/25 04:29:04;;;;;;;5.57;4.20;;;;;;;6.82;89.96;100304.63;5005849;28;20132;-83
2022/04/25 04:31:30;;;;;;;9.27;5.15;;;;;;;6.85;90.18;100306.38;5017735;28;20037;-83
2022/04/25 04:33:57;;;;;;;6.78;5.38;;;;;;;6.81;90.17;100310.69;5017088;28;20060;-84
2022/04/25 04:36:24;;;;;;;7.82;5.22;;;;;;;6.79;91.07;100309.81;5017607;28;20049;-82
2022/04/25 04:38:51;;;;;;;7.53;5.63;;;;;;;6.78;90.79;100314.16;5017349;28;20052;-83
2022/04/25 04:41:17;;;;;;;9.30;5.32;;;;;;;6.82;91.05;100321.97;5017293;28;21047;-83
2022/04/25 04:43:44;;;;;;;7.57;5.97;;;;;;;6.87;90.54;100320.22;5003631;28;20049;-83
2022/04/25 04:46:11;;;;;;;10.75;7.65;;;;;;;6.89;90.87;100326.31;5014129;28;20049;-82
2022/04/25 04:48:38;;;;;;;7.32;5.45;;;;;;;6.88;90.64;100327.19;5003584;28;20044;-83
2022/04/25 04:51:04;;;;;;;7.65;5.60;;;;;;;6.91;90.50;100335.88;5016610;28;20041;-83
2022/04/25 04:53:31;;;;;;;9.85;6.32;;;;;;;6.91;90.00;100328.06;5018187;28;20050;-82
2022/04/25 04:55:59;;;;;;;10.43;6.40;;;;;;;6.94;89.93;100338.47;5018197;28;20053;-83
2022/04/25 04:58:27;;;;;;;8.68;6.03;;;;;;;6.95;89.67;100344.53;5038006;28;20041;-83
2022/04/25 05:00:54;;;;;;;7.18;5.30;;;;;;;6.88;90.00;100335.88;5033616;28;20110;-83
2022/04/25 05:03:25;;;;;;;8.88;6.10;;;;;;;6.84;90.31;100341.91;5007445;28;20704;-83
2022/04/25 05:05:53;;;;;;;8.45;5.90;;;;;;;6.81;90.27;100336.72;5031598;28;20041;-83
2022/04/25 05:08:20;;;;;;;9.48;6.20;;;;;;;6.78;90.50;100334.97;5043601;28;20054;-82
2022/04/25 05:10:48;;;;;;;10.23;6.47;;;;;;;6.79;90.46;100344.53;5014315;28;20107;-82
2022/04/25 05:13:16;;;;;;;10.15;6.18;;;;;;;6.82;90.40;100345.38;5017674;28;20056;-83
2022/04/25 05:15:43;;;;;;;9.50;5.97;;;;;;;6.87;90.38;100343.66;5033356;28;20408;-82
2022/04/25 05:18:12;;;;;;;6.18;5.53;;;;;;;6.89;90.14;100352.34;5021648;28;20274;-83
2022/04/25 05:20:39;;;;;;;9.15;5.00;;;;;;;6.87;90.20;100354.06;5036405;28;20071;-83
2022/04/25 05:23:10;;;;;;;6.75;5.07;;;;;;;6.85;90.35;100355.81;5024536;28;20046;-80
2022/04/25 05:25:38;;;;;;;11.25;5.45;;;;;;;6.82;90.87;100359.28;5039978;28;20053;-81
2022/04/25 05:28:06;;;;;;;6.63;5.10;;;;;;;6.78;91.83;100363.59;5005317;28;20053;-83
2022/04/25 05:30:33;;;;;;;6.45;4.32;;;;;;;6.72;92.13;100370.53;5012714;28;20402;-80
2022/04/25 05:33:02;;;;;;;7.25;4.05;;;;;;;6.67;92.65;100367.91;4990529;28;20281;-82
2022/04/25 05:35:34;;;;;;;6.60;4.20;;;;;;;6.66;93.34;100365.28;5001078;28;20581;-82
2022/04/25 05:38:02;;;;;;;6.80;4.00;;;;;;;6.69;93.93;100373.97;5004366;28;20045;-80
2022/04/25 05:40:28;;;;;;;7.95;4.45;;;;;;;6.69;94.19;100373.97;5006454;28;20151;-82
2022/04/25 05:42:58;;;;;;;7.35;4.72;;;;;;;6.73;94.69;100372.28;5024768;28;20441;-81
2022/04/25 05:45:26;;;;;;;7.75;4.75;;;;;;;6.76;94.60;100367.91;4992016;28;20061;-80
2022/04/25 05:47:55;;;;;;;6.78;4.55;;;;;;;6.79;94.71;100378.34;5024731;28;20049;-81
2022/04/25 05:53:07;;;;;;;9.95;5.18;;;;;;;6.86;95.28;100374.03;5037672;28;20494;-81
2022/04/25 05:55:34;;;;;;;10.18;5.80;;;;;;;6.91;96.38;100382.69;5009528;28;20049;-81
2022/04/25 05:58:02;;;;;;;13.07;5.60;;;;;;;6.94;95.86;100381.84;5022036;28;20045;-81
2022/04/25 06:00:30;;;;;;;8.07;5.72;;;;;;;6.93;96.29;100385.31;5022716;28;20119;-80
2022/04/25 06:02:58;;;;;;;13.70;5.10;;;;;;;6.92;96.04;100389.66;5041086;28;20149;-81
2022/04/25 06:05:25;;;;;;;10.82;6.43;;;;;;;6.89;96.24;100384.41;5007400;28;20053;-81
2022/04/25 06:07:52;;;;;;;10.77;6.90;;;;;;;6.84;96.40;100380.94;5022290;28;20168;-81
2022/04/25 06:10:22;;;;;;;11.00;8.02;;;;;;;6.86;97.02;100386.16;5005204;28;20077;-82
2022/04/25 06:12:51;;;;;;;8.38;5.93;;;;;;;6.87;96.89;100377.47;5023790;28;20041;-81
2022/04/25 06:15:21;;;;;;;8.02;6.50;;;;;;;6.89;97.55;100378.34;5007030;28;20053;-81
2022/04/25 06:17:48;;;;;;;13.82;7.50;;;;;;;6.91;97.96;100384.41;5024585;28;20045;-81
2022/04/25 06:20:15;;;;;;;8.70;5.78;;;;;;;6.89;97.08;100381.81;5007368;28;20175;-80
2022/04/25 06:22:55;;;;;;;6.30;5.57;;;;;;;6.87;97.23;100386.16;5006193;28;20066;-82
2022/04/25 06:25:22;;;;;;;8.90;5.18;;;;;;;6.84;97.09;100391.34;5036792;28;20048;-81
2022/04/25 06:27:49;;;;;;;8.88;5.47;;;;;;;6.78;97.62;100387.00;5014798;28;20052;-84
2022/04/25 06:30:16;;;;;;;13.85;5.45;;;;;;;6.82;98.50;100393.09;5032581;28;20101;-84
2022/04/25 06:32:44;;;;;;;7.75;5.55;;;;;;;6.84;97.67;100400.91;5030855;28;20045;-84
2022/04/25 06:35:14;;;;;;;7.90;6.30;;;;;;;6.83;98.84;100397.44;5025466;28;20053;-85
2022/04/25 06:37:44;;;;;;;9.63;6.07;;;;;;;6.86;98.65;100407.84;5043272;28;20045;-85
2022/04/25 06:40:11;;;;;;;9.25;5.80;;;;;;;6.86;98.86;100414.78;5025587;28;20056;-85
2022/04/25 06:42:41;;;;;;;11.75;7.70;;;;;;;6.88;99.68;100406.13;5032219;28;20092;-85
2022/04/25 06:45:19;;;;;;;6.20;5.18;;;;;;;6.89;98.85;100410.44;5044586;28;20165;-84
2022/04/25 06:47:45;;;;;;;5.68;4.57;;;;;;;6.88;99.36;100410.44;5048728;28;20076;-84
2022/04/25 06:50:13;;;;;;;10.45;4.97;;;;;;;6.88;98.53;100411.34;5032373;28;20052;-84
2022/04/25 06:52:41;;;;;;;6.32;4.88;;;;;;;6.87;98.37;100407.00;5046044;28;20051;-84
2022/04/25 06:55:08;;;;;;;8.65;4.25;;;;;;;6.82;98.26;100406.09;5028802;28;20168;-84
2022/04/25 06:57:36;;;;;;;12.30;5.13;;;;;;;6.79;98.21;100421.69;5014319;28;20053;-84
2022/04/25 07:00:09;;;;;;;5.93;4.20;;;;;;;6.74;98.44;100426.91;5018628;28;20127;-82
2022/04/25 07:02:37;;;;;;;8.10;4.68;;;;;;;6.70;99.51;100421.66;5034564;28;20049;-83
2022/04/25 07:05:06;;;;;;;5.95;4.70;;;;;;;6.72;100.00;100419.94;5015613;28;20050;-82
2022/04/25 07:07:33;;;;;;;9.10;5.28;;;;;;;6.76;100.00;100427.75;5032312;28;20076;-83
2022/04/25 07:10:00;;;;;;;7.38;5.43;;;;;;;6.78;99.59;100430.38;5016936;28;20076;-82
2022/04/25 07:12:28;;;;;;;9.10;6.50;;;;;;;6.78;99.53;100436.44;5018733;28;20112;-82
2022/04/25 07:14:57;;;;;;;11.05;7.15;;;;;;;6.77;99.06;100434.69;5015111;28;20455;-81
2022/04/25 07:17:24;;;;;;;9.25;6.65;;;;;;;6.76;99.79;100432.94;5032184;28;20132;-83
2022/04/25 07:19:50;;;;;;;13.68;5.82;;;;;;;6.74;99.43;100431.22;5032173;28;20045;-82
2022/04/25 07:30:30;;;;;;;;;;;;;;;6.70;100.00;100439.88;5020796;28;20117;-82
2022/04/25 07:33:00;;;;;;;10.55;5.93;;;;;;;6.68;100.00;100444.22;5027713;28;19929;-82
2022/04/25 07:35:27;;;;;;;11.25;4.55;;;;;;;6.70;100.00;100439.88;5013634;28;20058;-82
2022/04/25 07:37:55;;;;;;;14.13;6.47;;;;;;;6.74;100.00;100454.63;5018346;28;20055;-82
2022/04/25 07:40:23;;;;;;;9.07;6.05;;;;;;;6.82;100.00;100442.53;5031377;28;20038;-81
2022/04/25 07:42:50;;;;;;;8.52;5.32;;;;;;;6.94;100.00;100457.31;5021727;28;20046;-83
2022/04/25 07:45:17;;;;;;;6.57;4.97;;;;;;;6.99;99.96;100457.31;5029110;28;20144;-82
2022/04/25 07:47:45;;;;;;;16.33;6.03;;;;;;;7.01;99.74;100458.19;5018029;28;20115;-82
2022/04/25 07:50:12;;;;;;;9.48;6.47;;;;;;;7.04;99.47;100452.97;5046071;28;20045;-82
2022/04/25 07:52:38;;;;;;;11.98;6.05;;;;;;;7.04;99.38;100461.69;5015740;28;20085;-82
2022/04/25 07:55:07;;;;;;;10.57;5.65;;;;;;;7.10;98.90;100463.41;5047186;28;20088;-83
2022/04/25 07:57:35;;;;;;;12.45;6.38;;;;;;;7.06;99.13;100462.53;5030357;28;20060;-83
2022/04/25 08:00:06;;;;;;;11.68;5.68;;;;;;;7.01;98.70;100471.19;5011713;28;20054;-82
2022/04/25 08:02:33;;;;;;;13.05;7.13;;;;;;;6.97;99.95;100464.25;5028696;28;20077;-82
2022/04/25 08:05:00;;;;;;;14.63;6.18;;;;;;;6.99;99.83;100473.81;5030328;28;20061;-82
2022/04/25 08:07:30;;;;;;;9.35;6.55;;;;;;;7.06;99.34;100477.28;5010466;28;20053;-81
2022/04/25 08:09:56;;;;;;;6.88;4.72;;;;;;;7.14;98.07;100472.97;5026261;28;20061;-82
2022/04/25 08:17:59;;;;;;;14.30;5.65;;;;;;;7.47;96.48;100476.50;5016210;28;20041;-82
2022/04/25 08:20:35;;;;;;;7.32;5.47;;;;;;;7.52;95.20;100482.59;5019243;28;20072;-82
2022/04/25 08:23:04;;;;;;;9.80;5.68;;;;;;;7.60;95.23;100477.34;5029722;28;20082;-82
2022/04/25 08:25:37;;;;;;;6.80;5.05;;;;;;;7.76;94.78;100484.31;5030334;28;20421;-83
2022/04/25 08:28:06;;;;;;;7.95;5.53;;;;;;;7.88;94.02;100482.59;5012346;28;20056;-81
2022/04/25 08:30:33;;;;;;;11.02;5.43;;;;;;;8.04;93.51;100486.03;5030730;28;20034;-82
2022/04/25 08:33:01;;;;;;;7.45;5.68;;;;;;;8.16;92.29;100491.25;5029300;28;20091;-82
2022/04/25 08:35:28;;;;;;;9.88;6.57;;;;;;;8.29;92.57;100494.66;5025649;28;20162;-82
2022/04/25 08:37:55;;;;;;;7.45;5.22;;;;;;;8.34;91.65;100494.69;5032796;28;20045;-83
2022/04/25 08:40:23;;;;;;;6.68;5.53;;;;;;;8.34;91.39;100492.94;5030653;28;20116;-82
2022/04/25 08:42:50;;;;;;;6.80;4.90;;;;;;;8.34;91.10;100494.69;5015925;28;20058;-82
2022/04/25 08:45:17;;;;;;;7.97;4.65;;;;;;;8.42;90.98;100504.22;5034324;28;20046;-83
2022/04/25 08:47:54;;;;;;;9.52;6.82;;;;;;;8.40;89.72;100511.19;5032871;28;20041;-82
2022/04/25 08:50:23;;;;;;;13.77;6.47;;;;;;;8.41;90.96;100510.31;5046055;28;20088;-82
2022/04/25 08:52:49;;;;;;;9.48;6.88;;;;;;;8.42;90.31;100508.56;5050840;28;21464;-83
2022/04/25 08:55:17;;;;;;;14.60;7.22;;;;;;;8.38;91.80;100510.31;5036369;28;20061;-82
2022/04/25 08:57:46;;;;;;;11.82;6.53;;;;;;;8.33;89.79;100527.72;5035457;28;20071;-84
2022/04/25 09:00:15;;;;;;;9.80;6.00;;;;;;;8.27;89.81;100520.75;5035640;28;20076;-83
2022/04/25 09:02:41;;;;;;;6.68;5.82;;;;;;;8.34;90.38;100525.97;5021939;28;20249;-83
2022/04/25 09:05:10;;;;;;;10.98;5.72;;;;;;;8.42;90.63;100524.22;5036114;28;20057;-80
2022/04/25 09:07:37;;;;;;;12.10;6.78;;;;;;;8.47;89.99;100530.31;5035235;28;20061;-83
2022/04/25 09:10:15;;;;;;;8.63;5.78;;;;;;;8.50;89.77;100542.50;5032688;28;20041;-81
2022/04/25 09:12:45;;;;;;;10.77;6.60;;;;;;;8.53;88.77;100543.34;5017653;28;20053;-83
2022/04/25 09:15:12;;;;;;;10.98;7.05;;;;;;;8.48;89.06;100550.31;5020923;28;20049;-83
2022/04/25 09:17:39;;;;;;;7.93;5.80;;;;;;;8.58;89.00;100549.44;5047252;28;20083;-83
2022/04/25 09:20:10;;;;;;;8.82;5.95;;;;;;;8.72;88.02;100548.53;5029947;28;20053;-83
2022/04/25 09:22:41;;;;;;;11.70;6.80;;;;;;;8.87;86.27;100552.84;5053524;28;20049;-83
2022/04/25 09:25:17;;;;;;;12.02;6.22;;;;;;;8.97;85.20;100561.50;5029841;28;20109;-82
2022/04/25 09:27:47;;;;;;;7.38;5.78;;;;;;;9.15;84.38;100564.03;5035131;28;20060;-82
2022/04/25 09:30:21;;;;;;;10.35;5.55;;;;;;;9.36;82.86;100559.56;5032023;28;20483;-81
2022/04/25 09:32:51;;;;;;;8.75;5.68;;;;;;;9.53;81.07;100557.75;5035972;28;20049;-82
2022/04/25 09:35:38;;;;;;;8.27;6.45;;;;;;;9.50;80.57;100555.13;5035819;28;20137;-83
2022/04/25 09:38:06;;;;;;;11.57;5.70;;;;;;;9.37;81.13;100554.34;5046425;28;20068;-83
2022/04/25 09:40:35;;;;;;;11.60;6.63;;;;;;;9.17;82.27;100561.41;5036571;28;20441;-83
2022/04/25 09:43:14;;;;;;;17.10;9.15;;;;;;;9.12;83.38;100561.44;5034830;28;20127;-83
2022/04/25 09:45:42;;;;;;;10.10;6.80;;;;;;;9.08;84.50;100568.41;5034731;28;20045;-83
2022/04/25 09:48:14;;;;;;;16.02;5.43;;;;;;;9.06;84.57;100564.94;5048941;28;20594;-83
2022/04/25 09:50:41;;;;;;;9.48;4.75;;;;;;;9.11;83.52;100570.13;5036461;28;20502;-82
2022/04/25 09:53:10;;;;;;;9.05;6.05;;;;;;;9.09;82.69;100567.53;5032184;28;20115;-81
2022/04/25 09:55:39;;;;;;;11.25;6.32;;;;;;;9.06;83.30;100562.34;5030878;28;20057;-82
2022/04/25 09:58:39;;;;;;;7.88;6.60;;;;;;;9.05;83.13;100564.97;5033099;28;20046;-82
2022/04/25 10:01:15;;;;;;;8.73;6.53;;;;;;;9.01;83.47;100563.22;5028146;28;20041;-81
2022/04/25 10:03:43;;;;;;;11.20;6.13;;;;;;;8.88;83.39;100573.72;5041561;28;20081;-82
2022/04/25 10:06:10;;;;;;;7.43;5.25;;;;;;;8.83;84.78;100578.06;5033315;28;20034;-80
2022/04/25 10:08:38;;;;;;;10.45;6.20;;;;;;;8.81;84.34;100585.03;5019075;28;20054;-82
2022/04/25 10:11:07;;;;;;;23.27;7.07;;;;;;;8.80;84.71;100580.72;5030081;28;20105;-83
2022/04/25 10:13:36;;;;;;;11.85;6.00;;;;;;;8.81;85.00;100582.41;5034544;28;20068;-82
2022/04/25 10:16:04;;;;;;;8.82;6.10;;;;;;;8.80;84.48;100583.31;5036151;28;20072;-83
2022/04/25 10:18:31;;;;;;;6.63;5.25;;;;;;;8.88;84.64;100591.13;5052939;28;20084;-82
2022/04/25 10:21:00;;;;;;;8.27;5.22;;;;;;;8.94;83.42;100589.38;5033304;28;20073;-81
2022/04/25 10:23:27;;;;;;;10.73;6.88;;;;;;;9.07;83.09;100587.59;5018258;28;20053;-82
2022/04/25 10:25:58;;;;;;;9.02;5.65;;;;;;;9.23;82.52;100595.31;5017990;28;20049;-82
2022/04/25 10:28:54;;;;;;;7.30;5.95;;;;;;;9.38;81.05;100591.78;5018317;28;20481;-82
2022/04/25 10:31:32;;;;;;;8.48;5.68;;;;;;;9.42;81.02;100591.75;5041048;28;20586;-82
2022/04/25 10:34:02;;;;;;;9.23;5.20;;;;;;;9.43;80.65;100601.31;5031249;28;20412;-82
2022/04/25 10:36:38;;;;;;;8.20;6.20;;;;;;;9.40;80.62;100600.50;5017156;28;20053;-83
2022/04/25 10:39:24;;;;;;;10.93;6.35;;;;;;;9.38;81.10;100602.25;5031388;28;20046;-82
2022/04/25 10:44:40;;;;;;;9.68;5.78;;;;;;;9.35;80.44;100604.88;5033517;28;20624;-83
2022/04/25 10:47:34;;;;;;;9.35;5.53;;;;;;;9.27;80.82;100599.69;5037949;28;20041;-83
2022/04/25 10:50:10;;;;;;;9.18;6.13;;;;;;;9.24;80.57;100608.41;5035248;28;20109;-82
2022/04/25 10:52:42;;;;;;;11.70;6.57;;;;;;;9.27;80.66;100605.75;5020014;28;20068;-82
2022/04/25 10:55:34;;;;;;;11.10;5.70;;;;;;;9.44;80.27;100603.06;5050860;28;20081;-82
2022/04/25 10:58:07;;;;;;;8.07;5.93;;;;;;;9.79;79.27;100606.38;5030349;28;20056;-82
2022/04/25 11:00:37;;;;;;;8.05;6.55;;;;;;;10.09;77.36;100607.88;5032983;28;20052;-83
2022/04/25 11:03:23;;;;;;;13.25;6.90;;;;;;;10.33;76.32;100605.94;5027922;28;20336;-83
2022/04/25 11:06:00;;;;;;;9.27;6.07;;;;;;;10.40;74.67;100612.91;5017233;28;20498;-83
2022/04/25 11:08:40;;;;;;;6.93;5.85;;;;;;;10.45;75.06;100609.38;5018679;28;20037;-83
2022/04/25 11:11:21;;;;;;;6.78;5.78;;;;;;;10.46;74.43;100611.97;5026394;28;20045;-83
2022/04/25 11:13:51;;;;;;;7.00;5.40;;;;;;;10.42;74.28;100611.13;5013575;28;20056;-83
2022/04/25 11:16:24;;;;;;;10.25;6.03;;;;;;;10.41;73.99;100612.00;5034323;28;20407;-81
2022/04/25 11:19:21;;;;;;;6.65;5.68;;;;;;;10.38;73.89;100616.41;5022869;28;20053;-83
2022/04/25 11:21:55;;;;;;;8.75;5.43;;;;;;;10.40;74.58;100618.16;5033257;28;20056;-82
2022/04/25 11:24:38;;;;;;;11.77;6.05;;;;;;;10.49;73.86;100619.78;5028740;28;20041;-83
2022/04/25 11:27:12;;;;;;;4.90;4.40;;;;;;;10.54;73.37;100622.38;5022787;28;20403;-84
2022/04/25 11:29:47;;;;;;;7.65;5.22;;;;;;;10.63;73.50;100632.75;5013477;28;20061;-82
2022/04/25 11:32:35;;;;;;;9.13;5.25;;;;;;;10.78;72.63;100630.88;5025785;28;20046;-82
2022/04/25 11:35:03;;;;;;;9.85;5.90;;;;;;;10.86;72.18;100636.88;5012853;28;20079;-83
2022/04/25 11:37:33;;;;;;;10.98;7.63;;;;;;;10.92;72.50;100631.59;5028059;28;20049;-83
2022/04/25 11:40:11;;;;;;;7.72;5.95;;;;;;;11.14;71.29;100631.38;5031551;28;20057;-83
2022/04/25 11:42:38;;;;;;;10.48;6.05;;;;;;;11.29;70.63;100631.19;5028735;28;20132;-83
2022/04/25 11:45:16;;;;;;;8.40;5.97;;;;;;;11.35;69.93;100636.31;5010622;28;20068;-82
2022/04/25 11:47:46;;;;;;;11.25;6.07;;;;;;;11.37;68.94;100639.81;5032777;28;20341;-81
2022/04/25 11:50:23;;;;;;;;;;;;;;;;;;;;;
2022/04/25 11:52:55;;;;;;;8.40;5.50;;;;;;;11.30;69.12;100640.75;5018167;28;20041;-82
2022/04/25 11:55:39;;;;;;;8.77;6.43;;;;;;;11.18;68.70;100643.53;5010281;28;20072;-83
2022/04/25 11:58:06;;;;;;;8.35;6.57;;;;;;;11.16;69.41;100640.06;5015398;28;20050;-83
2022/04/25 12:00:35;;;;;;;10.88;6.45;;;;;;;11.23;69.43;100639.97;5043106;28;20046;-83
2022/04/25 12:03:05;;;;;;;12.25;8.95;;;;;;;11.29;69.54;100646.03;5015445;28;20050;-82
2022/04/25 12:05:35;;;;;;;9.07;5.60;;;;;;;11.46;69.15;100635.31;5032128;28;20080;-82
2022/04/25 12:16:38;;;;;;;12.65;6.18;;;;;;;11.64;67.14;100653.47;5044786;28;20053;-82
2022/04/25 12:19:18;;;;;;;6.13;5.43;;;;;;;11.67;66.64;100653.41;5049583;28;20058;-83